sensor_id;sensor_type;location;lat;lon;timestamp;pressure;altitude;pressure_sealevel;temperature;humidity
6528;BME280;64597;42.664;23.256;2023-07-29T00:01:35;94448.63;;;20.18;47.95
6528;BME280;64597;42.664;23.256;2023-07-29T00:04:01;94444.66;;;20.15;47.84
6528;BME280;64597;42.664;23.256;2023-07-29T00:06:27;94440.00;;;20.07;47.68
6528;BME280;64597;42.664;23.256;2023-07-29T00:08:52;94458.63;;;20.12;47.67
6528;BME280;64597;42.664;23.256;2023-07-29T00:11:18;94456.16;;;20.02;47.64
6528;BME280;64597;42.664;23.256;2023-07-29T00:13:43;94450.91;;;19.97;47.77
6528;BME280;64597;42.664;23.256;2023-07-29T00:16:09;94452.41;;;20.03;47.80
6528;BME280;64597;42.664;23.256;2023-07-29T00:18:35;94434.41;;;19.90;47.86
6528;BME280;64597;42.664;23.256;2023-07-29T00:21:00;94450.78;;;20.02;47.89
6528;BME280;64597;42.664;23.256;2023-07-29T00:23:25;94431.25;;;19.88;48.10
6528;BME280;64597;42.664;23.256;2023-07-29T00:25:51;94451.47;;;19.94;48.37
6528;BME280;64597;42.664;23.256;2023-07-29T00:28:16;94452.06;;;19.91;48.46
6528;BME280;64597;42.664;23.256;2023-07-29T00:30:42;94452.84;;;19.92;48.63
6528;BME280;64597;42.664;23.256;2023-07-29T00:33:12;94444.03;;;19.91;48.75
6528;BME280;64597;42.664;23.256;2023-07-29T00:35:50;94426.38;;;19.77;48.84
6528;BME280;64597;42.664;23.256;2023-07-29T00:38:16;94434.69;;;19.75;49.24
6528;BME280;64597;42.664;23.256;2023-07-29T00:40:43;94436.84;;;19.73;49.08
6528;BME280;64597;42.664;23.256;2023-07-29T00:43:08;94430.88;;;19.62;49.09
6528;BME280;64597;42.664;23.256;2023-07-29T00:45:34;94438.25;;;19.70;49.59
6528;BME280;64597;42.664;23.256;2023-07-29T00:48:00;94438.63;;;19.64;50.09
6528;BME280;64597;42.664;23.256;2023-07-29T00:50:26;94430.66;;;19.59;49.71
6528;BME280;64597;42.664;23.256;2023-07-29T00:52:57;94383.59;;;19.26;49.77
6528;BME280;64597;42.664;23.256;2023-07-29T00:55:23;94444.84;;;19.59;49.47
6528;BME280;64597;42.664;23.256;2023-07-29T00:57:48;94417.78;;;19.47;50.03
6528;BME280;64597;42.664;23.256;2023-07-29T01:00:17;94440.56;;;19.58;49.77
6528;BME280;64597;42.664;23.256;2023-07-29T01:02:43;94434.22;;;19.54;49.76
6528;BME280;64597;42.664;23.256;2023-07-29T01:05:11;94417.06;;;19.42;50.04
6528;BME280;64597;42.664;23.256;2023-07-29T01:10:39;94430.44;;;19.42;50.27
6528;BME280;64597;42.664;23.256;2023-07-29T01:13:34;94427.84;;;19.37;50.29
6528;BME280;64597;42.664;23.256;2023-07-29T01:16:09;94429.94;;;19.40;50.03
6528;BME280;64597;42.664;23.256;2023-07-29T01:18:36;94433.19;;;19.37;49.89
6528;BME280;64597;42.664;23.256;2023-07-29T01:21:04;94433.47;;;19.35;50.52
6528;BME280;64597;42.664;23.256;2023-07-29T01:23:35;94432.16;;;19.33;50.25
6528;BME280;64597;42.664;23.256;2023-07-29T01:26:03;94434.88;;;19.28;50.30
6528;BME280;64597;42.664;23.256;2023-07-29T01:28:28;94433.00;;;19.28;50.40
6528;BME280;64597;42.664;23.256;2023-07-29T01:31:02;94432.50;;;19.26;50.46
6528;BME280;64597;42.664;23.256;2023-07-29T01:33:59;94431.72;;;19.26;51.24
6528;BME280;64597;42.664;23.256;2023-07-29T01:36:28;94437.66;;;19.23;51.20
6528;BME280;64597;42.664;23.256;2023-07-29T01:38:56;94441.91;;;19.24;51.19
6528;BME280;64597;42.664;23.256;2023-07-29T01:41:23;94429.69;;;19.18;51.33
6528;BME280;64597;42.664;23.256;2023-07-29T01:43:49;94433.47;;;19.17;51.29
6528;BME280;64597;42.664;23.256;2023-07-29T01:46:16;94417.94;;;18.81;51.02
6528;BME280;64597;42.664;23.256;2023-07-29T01:48:42;94428.47;;;19.10;51.41
6528;BME280;64597;42.664;23.256;2023-07-29T01:51:08;94432.09;;;19.01;51.44
6528;BME280;64597;42.664;23.256;2023-07-29T01:53:34;94428.41;;;18.97;51.68
6528;BME280;64597;42.664;23.256;2023-07-29T01:55:59;94432.16;;;18.96;51.66
6528;BME280;64597;42.664;23.256;2023-07-29T01:58:25;94428.41;;;18.97;51.68
6528;BME280;64597;42.664;23.256;2023-07-29T02:00:51;94426.25;;;18.99;51.71
6528;BME280;64597;42.664;23.256;2023-07-29T02:03:16;94416.28;;;18.85;51.90
6528;BME280;64597;42.664;23.256;2023-07-29T02:05:42;94431.50;;;18.85;52.25
6528;BME280;64597;42.664;23.256;2023-07-29T02:08:09;94429.94;;;18.84;52.13
6528;BME280;64597;42.664;23.256;2023-07-29T02:10:35;94428.13;;;18.79;52.80
6528;BME280;64597;42.664;23.256;2023-07-29T02:13:00;94429.78;;;18.75;52.64
6528;BME280;64597;42.664;23.256;2023-07-29T02:15:26;94416.00;;;18.68;52.39
6528;BME280;64597;42.664;23.256;2023-07-29T02:17:51;94433.75;;;18.78;52.22
6528;BME280;64597;42.664;23.256;2023-07-29T02:20:17;94426.09;;;18.71;52.49
6528;BME280;64597;42.664;23.256;2023-07-29T02:22:44;94436.81;;;18.66;53.31
6528;BME280;64597;42.664;23.256;2023-07-29T02:25:09;94428.94;;;18.56;53.47
6528;BME280;64597;42.664;23.256;2023-07-29T02:27:35;94441.66;;;18.64;53.73
6528;BME280;64597;42.664;23.256;2023-07-29T02:30:02;94442.75;;;18.63;53.74
6528;BME280;64597;42.664;23.256;2023-07-29T02:32:28;94440.09;;;18.63;53.78
6528;BME280;64597;42.664;23.256;2023-07-29T02:34:53;94440.59;;;18.65;53.95
6528;BME280;64597;42.664;23.256;2023-07-29T02:37:19;94439.28;;;18.63;53.79
6528;BME280;64597;42.664;23.256;2023-07-29T02:39:45;94436.91;;;18.61;53.99
6528;BME280;64597;42.664;23.256;2023-07-29T02:42:10;94439.28;;;18.63;54.05
6528;BME280;64597;42.664;23.256;2023-07-29T02:44:40;94414.97;;;18.46;54.57
6528;BME280;64597;42.664;23.256;2023-07-29T02:47:05;94416.81;;;18.45;54.48
6528;BME280;64597;42.664;23.256;2023-07-29T02:49:31;94423.22;;;18.44;54.47
6528;BME280;64597;42.664;23.256;2023-07-29T02:51:56;94443.44;;;18.50;54.37
6528;BME280;64597;42.664;23.256;2023-07-29T02:54:22;94432.34;;;18.38;54.79
6528;BME280;64597;42.664;23.256;2023-07-29T02:56:47;94447.00;;;18.46;55.04
6528;BME280;64597;42.664;23.256;2023-07-29T02:59:12;94434.50;;;18.36;55.10
6528;BME280;64597;42.664;23.256;2023-07-29T03:01:38;94452.94;;;18.38;54.99
6528;BME280;64597;42.664;23.256;2023-07-29T03:04:03;94445.47;;;18.35;54.89
6528;BME280;64597;42.664;23.256;2023-07-29T03:06:29;94439.97;;;18.26;55.09
6528;BME280;64597;42.664;23.256;2023-07-29T03:08:54;94454.81;;;18.37;55.14
6528;BME280;64597;42.664;23.256;2023-07-29T03:11:20;94461.78;;;18.33;54.99
6528;BME280;64597;42.664;23.256;2023-07-29T03:13:45;94461.78;;;18.33;54.98
6528;BME280;64597;42.664;23.256;2023-07-29T03:16:13;94456.66;;;18.37;54.87
6528;BME280;64597;42.664;23.256;2023-07-29T03:18:42;94458.28;;;18.38;55.30
6528;BME280;64597;42.664;23.256;2023-07-29T03:21:09;94458.28;;;18.38;54.68
6528;BME280;64597;42.664;23.256;2023-07-29T03:23:35;94451.66;;;18.30;54.78
6528;BME280;64597;42.664;23.256;2023-07-29T03:26:02;94461.53;;;18.30;54.96
6528;BME280;64597;42.664;23.256;2023-07-29T03:28:31;94425.88;;;17.97;55.11
6528;BME280;64597;42.664;23.256;2023-07-29T03:30:57;94467.25;;;18.23;55.20
6528;BME280;64597;42.664;23.256;2023-07-29T03:33:24;94466.22;;;18.19;55.67
6528;BME280;64597;42.664;23.256;2023-07-29T03:35:50;94467.50;;;18.22;55.89
6528;BME280;64597;42.664;23.256;2023-07-29T03:38:15;94449.19;;;18.15;55.74
6528;BME280;64597;42.664;23.256;2023-07-29T03:40:42;94464.06;;;18.21;55.85
6528;BME280;64597;42.664;23.256;2023-07-29T03:43:08;94449.41;;;18.19;55.97
6528;BME280;64597;42.664;23.256;2023-07-29T03:45:34;94452.69;;;18.10;55.71
6528;BME280;64597;42.664;23.256;2023-07-29T03:48:00;94455.03;;;18.17;55.84
6528;BME280;64597;42.664;23.256;2023-07-29T03:50:26;94461.66;;;18.20;55.63
6528;BME280;64597;42.664;23.256;2023-07-29T03:52:52;94427.72;;;18.01;55.70
6528;BME280;64597;42.664;23.256;2023-07-29T03:55:18;94450.22;;;18.19;55.70
6528;BME280;64597;42.664;23.256;2023-07-29T03:57:43;94451.22;;;18.23;55.94
6528;BME280;64597;42.664;23.256;2023-07-29T04:00:09;94456.00;;;18.26;55.86
6528;BME280;64597;42.664;23.256;2023-07-29T04:02:35;94463.94;;;18.31;55.69
6528;BME280;64597;42.664;23.256;2023-07-29T04:05:03;94463.44;;;18.29;55.94
6528;BME280;64597;42.664;23.256;2023-07-29T04:07:29;94467.13;;;18.33;55.76
6528;BME280;64597;42.664;23.256;2023-07-29T04:09:54;94470.31;;;18.35;55.43
6528;BME280;64597;42.664;23.256;2023-07-29T04:12:20;94453.28;;;18.31;55.37
6528;BME280;64597;42.664;23.256;2023-07-29T04:14:47;94460.88;;;18.43;55.52
6528;BME280;64597;42.664;23.256;2023-07-29T04:17:12;94460.06;;;18.42;55.51
6528;BME280;64597;42.664;23.256;2023-07-29T04:19:37;94465.31;;;18.52;55.76
6528;BME280;64597;42.664;23.256;2023-07-29T04:22:03;94460.22;;;18.56;55.60
6528;BME280;64597;42.664;23.256;2023-07-29T04:24:29;94465.28;;;18.57;55.42
6528;BME280;64597;42.664;23.256;2023-07-29T04:26:54;94453.28;;;18.55;55.18
6528;BME280;64597;42.664;23.256;2023-07-29T04:29:19;94468.97;;;18.61;54.89
6528;BME280;64597;42.664;23.256;2023-07-29T04:31:46;94463.09;;;18.59;55.07
6528;BME280;64597;42.664;23.256;2023-07-29T04:34:11;94481.13;;;18.72;54.85
6528;BME280;64597;42.664;23.256;2023-07-29T04:36:37;94474.38;;;18.75;54.87
6528;BME280;64597;42.664;23.256;2023-07-29T04:39:02;94479.38;;;18.81;54.34
6528;BME280;64597;42.664;23.256;2023-07-29T04:41:28;94465.53;;;18.79;54.34
6528;BME280;64597;42.664;23.256;2023-07-29T04:43:53;94472.59;;;18.89;53.89
6528;BME280;64597;42.664;23.256;2023-07-29T04:46:19;94477.38;;;18.92;53.83
6528;BME280;64597;42.664;23.256;2023-07-29T04:48:45;94471.94;;;18.97;53.59
6528;BME280;64597;42.664;23.256;2023-07-29T04:51:10;94480.41;;;19.04;53.47
6528;BME280;64597;42.664;23.256;2023-07-29T04:53:36;94469.53;;;19.01;53.42
6528;BME280;64597;42.664;23.256;2023-07-29T04:56:02;94483.81;;;19.10;53.50
6528;BME280;64597;42.664;23.256;2023-07-29T04:58:28;94486.94;;;19.17;53.39
6528;BME280;64597;42.664;23.256;2023-07-29T05:00:55;94487.34;;;19.24;53.06
6528;BME280;64597;42.664;23.256;2023-07-29T05:03:21;94487.28;;;19.29;53.13
6528;BME280;64597;42.664;23.256;2023-07-29T05:05:46;94473.47;;;19.22;53.10
6528;BME280;64597;42.664;23.256;2023-07-29T05:08:12;94474.41;;;19.31;52.97
6528;BME280;64597;42.664;23.256;2023-07-29T05:10:37;94493.44;;;19.48;52.66
6528;BME280;64597;42.664;23.256;2023-07-29T05:13:02;94503.56;;;19.51;52.93
6528;BME280;64597;42.664;23.256;2023-07-29T05:15:28;94500.41;;;19.62;52.79
6528;BME280;64597;42.664;23.256;2023-07-29T05:17:53;94491.69;;;19.57;52.69
6528;BME280;64597;42.664;23.256;2023-07-29T05:20:19;94502.47;;;19.70;52.36
6528;BME280;64597;42.664;23.256;2023-07-29T05:22:45;94502.50;;;19.84;52.53
6528;BME280;64597;42.664;23.256;2023-07-29T05:25:10;94500.22;;;19.91;51.98
6528;BME280;64597;42.664;23.256;2023-07-29T05:27:36;94500.06;;;20.01;51.89
6528;BME280;64597;42.664;23.256;2023-07-29T05:30:01;94493.25;;;20.09;51.81
6528;BME280;64597;42.664;23.256;2023-07-29T05:32:27;94498.94;;;20.21;51.66
6528;BME280;64597;42.664;23.256;2023-07-29T05:34:52;94502.00;;;20.28;51.46
6528;BME280;64597;42.664;23.256;2023-07-29T05:37:18;94506.91;;;20.39;51.49
6528;BME280;64597;42.664;23.256;2023-07-29T05:39:43;94496.38;;;20.43;51.16
6528;BME280;64597;42.664;23.256;2023-07-29T05:42:08;94505.22;;;20.57;51.18
6528;BME280;64597;42.664;23.256;2023-07-29T05:44:34;94508.19;;;20.69;50.70
6528;BME280;64597;42.664;23.256;2023-07-29T05:47:00;94489.75;;;20.68;50.03
6528;BME280;64597;42.664;23.256;2023-07-29T05:49:25;94502.13;;;20.91;50.12
6528;BME280;64597;42.664;23.256;2023-07-29T05:51:51;94463.34;;;20.75;49.29
6528;BME280;64597;42.664;23.256;2023-07-29T05:54:18;94498.38;;;21.05;49.58
6528;BME280;64597;42.664;23.256;2023-07-29T05:56:44;94505.69;;;21.27;49.01
6528;BME280;64597;42.664;23.256;2023-07-29T05:59:10;94506.44;;;21.41;48.13
6528;BME280;64597;42.664;23.256;2023-07-29T06:01:35;94500.50;;;21.66;47.51
6528;BME280;64597;42.664;23.256;2023-07-29T06:04:01;94502.47;;;21.96;47.03
6528;BME280;64597;42.664;23.256;2023-07-29T06:06:27;94498.50;;;22.25;46.20
6528;BME280;64597;42.664;23.256;2023-07-29T06:08:53;94498.34;;;22.52;45.48
6528;BME280;64597;42.664;23.256;2023-07-29T06:11:18;94498.00;;;22.84;44.94
6528;BME280;64597;42.664;23.256;2023-07-29T06:13:44;94499.66;;;23.19;43.73
6528;BME280;64597;42.664;23.256;2023-07-29T06:16:09;94498.78;;;23.49;42.59
6528;BME280;64597;42.664;23.256;2023-07-29T06:18:35;94485.34;;;23.84;42.58
6528;BME280;64597;42.664;23.256;2023-07-29T06:21:01;94477.69;;;24.20;41.77
6528;BME280;64597;42.664;23.256;2023-07-29T06:23:26;94492.09;;;24.70;40.95
6528;BME280;64597;42.664;23.256;2023-07-29T06:25:52;94464.91;;;25.13;40.21
6528;BME280;64597;42.664;23.256;2023-07-29T06:28:17;94470.63;;;25.61;39.35
6528;BME280;64597;42.664;23.256;2023-07-29T06:30:45;94479.91;;;26.05;37.71
6528;BME280;64597;42.664;23.256;2023-07-29T06:33:14;94465.38;;;26.30;37.99
6528;BME280;64597;42.664;23.256;2023-07-29T06:35:41;94457.31;;;26.66;36.80
6528;BME280;64597;42.664;23.256;2023-07-29T06:38:06;94466.25;;;27.03;35.93
6528;BME280;64597;42.664;23.256;2023-07-29T06:40:32;94469.06;;;27.43;35.22
6528;BME280;64597;42.664;23.256;2023-07-29T06:42:57;94448.03;;;27.52;34.77
6528;BME280;64597;42.664;23.256;2023-07-29T06:45:23;94466.53;;;27.90;34.09
6528;BME280;64597;42.664;23.256;2023-07-29T06:47:48;94463.78;;;28.29;33.31
6528;BME280;64597;42.664;23.256;2023-07-29T06:50:14;94464.56;;;28.58;32.65
6528;BME280;64597;42.664;23.256;2023-07-29T06:52:39;94472.00;;;28.76;32.50
6528;BME280;64597;42.664;23.256;2023-07-29T06:55:07;94453.47;;;29.13;32.03
6528;BME280;64597;42.664;23.256;2023-07-29T06:57:32;94440.81;;;29.36;31.45
6528;BME280;64597;42.664;23.256;2023-07-29T06:59:58;94461.28;;;29.84;30.52
6528;BME280;64597;42.664;23.256;2023-07-29T07:02:23;94464.94;;;30.30;29.69
6528;BME280;64597;42.664;23.256;2023-07-29T07:04:49;94458.91;;;30.40;29.96
6528;BME280;64597;42.664;23.256;2023-07-29T07:07:15;94452.13;;;30.75;28.99
6528;BME280;64597;42.664;23.256;2023-07-29T07:09:41;94456.75;;;30.94;28.34
6528;BME280;64597;42.664;23.256;2023-07-29T07:12:07;94453.22;;;30.94;28.15
6528;BME280;64597;42.664;23.256;2023-07-29T07:14:33;94454.16;;;31.01;28.30
6528;BME280;64597;42.664;23.256;2023-07-29T07:16:58;94445.88;;;31.20;27.78
6528;BME280;64597;42.664;23.256;2023-07-29T07:19:24;94453.75;;;31.51;27.04
6528;BME280;64597;42.664;23.256;2023-07-29T07:21:49;94459.84;;;31.41;27.74
6528;BME280;64597;42.664;23.256;2023-07-29T07:24:14;94448.28;;;31.51;26.78
6528;BME280;64597;42.664;23.256;2023-07-29T07:26:40;94460.88;;;31.89;25.92
6528;BME280;64597;42.664;23.256;2023-07-29T07:29:05;94448.13;;;32.30;25.54
6528;BME280;64597;42.664;23.256;2023-07-29T07:31:33;94450.63;;;32.45;25.79
6528;BME280;64597;42.664;23.256;2023-07-29T07:33:59;94449.25;;;32.62;25.68
6528;BME280;64597;42.664;23.256;2023-07-29T07:36:24;94451.63;;;32.67;25.61
6528;BME280;64597;42.664;23.256;2023-07-29T07:38:50;94448.03;;;33.00;24.59
6528;BME280;64597;42.664;23.256;2023-07-29T07:41:15;94438.66;;;32.97;23.86
6528;BME280;64597;42.664;23.256;2023-07-29T07:43:41;94422.78;;;33.17;24.22
6528;BME280;64597;42.664;23.256;2023-07-29T07:46:06;94443.88;;;33.78;24.12
6528;BME280;64597;42.664;23.256;2023-07-29T07:48:32;94441.31;;;34.17;23.56
6528;BME280;64597;42.664;23.256;2023-07-29T07:50:58;94441.78;;;34.43;22.22
6528;BME280;64597;42.664;23.256;2023-07-29T07:53:24;94449.66;;;34.55;22.61
6528;BME280;64597;42.664;23.256;2023-07-29T07:55:51;94446.16;;;34.69;23.09
6528;BME280;64597;42.664;23.256;2023-07-29T07:58:16;94439.53;;;34.95;22.55
6528;BME280;64597;42.664;23.256;2023-07-29T08:00:42;94448.16;;;35.25;22.32
6528;BME280;64597;42.664;23.256;2023-07-29T08:03:08;94414.47;;;34.93;21.78
6528;BME280;64597;42.664;23.256;2023-07-29T08:05:34;94445.78;;;35.27;21.74
6528;BME280;64597;42.664;23.256;2023-07-29T08:07:59;94442.66;;;35.11;21.69
6528;BME280;64597;42.664;23.256;2023-07-29T08:10:24;94444.63;;;35.21;22.09
6528;BME280;64597;42.664;23.256;2023-07-29T08:12:50;94437.97;;;35.46;21.45
6528;BME280;64597;42.664;23.256;2023-07-29T08:15:16;94440.31;;;35.34;21.37
6528;BME280;64597;42.664;23.256;2023-07-29T08:17:41;94452.06;;;35.34;21.45
6528;BME280;64597;42.664;23.256;2023-07-29T08:20:07;94455.19;;;35.40;21.72
6528;BME280;64597;42.664;23.256;2023-07-29T08:22:32;94454.81;;;35.38;21.94
6528;BME280;64597;42.664;23.256;2023-07-29T08:24:58;94456.00;;;35.30;21.15
6528;BME280;64597;42.664;23.256;2023-07-29T08:27:24;94448.16;;;35.28;21.47
6528;BME280;64597;42.664;23.256;2023-07-29T08:29:49;94428.13;;;35.45;21.02
6528;BME280;64597;42.664;23.256;2023-07-29T08:32:15;94448.09;;;35.74;20.81
6528;BME280;64597;42.664;23.256;2023-07-29T08:34:40;94453.94;;;35.97;20.12
6528;BME280;64597;42.664;23.256;2023-07-29T08:37:06;94439.72;;;36.16;19.92
6528;BME280;64597;42.664;23.256;2023-07-29T08:39:31;94445.47;;;36.39;19.50
6528;BME280;64597;42.664;23.256;2023-07-29T08:42:01;94447.09;;;36.33;19.98
6528;BME280;64597;42.664;23.256;2023-07-29T08:44:35;94439.78;;;36.06;20.23
6528;BME280;64597;42.664;23.256;2023-07-29T08:47:02;94433.50;;;36.05;19.98
6528;BME280;64597;42.664;23.256;2023-07-29T08:49:28;94435.50;;;35.87;20.13
6528;BME280;64597;42.664;23.256;2023-07-29T08:51:57;94426.41;;;36.11;19.82
6528;BME280;64597;42.664;23.256;2023-07-29T08:54:26;94428.22;;;36.35;19.12
6528;BME280;64597;42.664;23.256;2023-07-29T08:56:51;94424.88;;;36.72;19.75
6528;BME280;64597;42.664;23.256;2023-07-29T08:59:17;94431.44;;;36.96;18.87
6528;BME280;64597;42.664;23.256;2023-07-29T09:01:44;94433.47;;;36.81;19.31
6528;BME280;64597;42.664;23.256;2023-07-29T09:04:10;94425.59;;;36.83;18.59
6528;BME280;64597;42.664;23.256;2023-07-29T09:06:36;94427.47;;;36.97;17.69
6528;BME280;64597;42.664;23.256;2023-07-29T09:09:03;94409.72;;;37.05;17.60
6528;BME280;64597;42.664;23.256;2023-07-29T09:11:30;94426.28;;;37.01;16.57
6528;BME280;64597;42.664;23.256;2023-07-29T09:13:55;94424.56;;;37.18;17.36
6528;BME280;64597;42.664;23.256;2023-07-29T09:16:22;94425.22;;;37.29;18.00
6528;BME280;64597;42.664;23.256;2023-07-29T09:18:48;94416.56;;;37.34;16.81
6528;BME280;64597;42.664;23.256;2023-07-29T09:21:17;94408.34;;;37.27;17.46
6528;BME280;64597;42.664;23.256;2023-07-29T09:23:44;94409.41;;;37.44;17.09
6528;BME280;64597;42.664;23.256;2023-07-29T09:26:09;94406.31;;;37.38;16.76
6528;BME280;64597;42.664;23.256;2023-07-29T09:28:40;94408.69;;;37.36;16.75
6528;BME280;64597;42.664;23.256;2023-07-29T09:31:06;94394.41;;;37.48;16.54
6528;BME280;64597;42.664;23.256;2023-07-29T09:33:35;94400.81;;;37.75;16.97
6528;BME280;64597;42.664;23.256;2023-07-29T09:36:07;94395.78;;;37.67;16.55
6528;BME280;64597;42.664;23.256;2023-07-29T09:38:34;94368.38;;;37.56;17.49
6528;BME280;64597;42.664;23.256;2023-07-29T09:41:01;94391.34;;;38.10;17.41
6528;BME280;64597;42.664;23.256;2023-07-29T09:43:31;94390.47;;;37.86;16.88
6528;BME280;64597;42.664;23.256;2023-07-29T09:46:05;94386.19;;;37.45;17.29
6528;BME280;64597;42.664;23.256;2023-07-29T09:48:37;94382.28;;;37.79;16.94
6528;BME280;64597;42.664;23.256;2023-07-29T09:51:13;94389.78;;;37.75;16.64
6528;BME280;64597;42.664;23.256;2023-07-29T09:53:43;94384.69;;;37.74;17.18
6528;BME280;64597;42.664;23.256;2023-07-29T09:56:09;94383.88;;;37.43;17.29
6528;BME280;64597;42.664;23.256;2023-07-29T09:58:35;94388.22;;;37.41;17.55
6528;BME280;64597;42.664;23.256;2023-07-29T10:01:03;94378.97;;;37.58;16.82
6528;BME280;64597;42.664;23.256;2023-07-29T10:03:30;94369.63;;;37.85;16.22
6528;BME280;64597;42.664;23.256;2023-07-29T10:06:00;94363.88;;;38.07;16.70
6528;BME280;64597;42.664;23.256;2023-07-29T10:08:27;94363.56;;;38.28;16.80
6528;BME280;64597;42.664;23.256;2023-07-29T10:10:54;94377.88;;;38.46;15.89
6528;BME280;64597;42.664;23.256;2023-07-29T10:13:20;94374.16;;;38.33;16.23
6528;BME280;64597;42.664;23.256;2023-07-29T10:15:46;94366.81;;;38.23;15.87
6528;BME280;64597;42.664;23.256;2023-07-29T10:18:14;94364.41;;;38.25;15.86
6528;BME280;64597;42.664;23.256;2023-07-29T10:20:43;94359.03;;;38.14;16.33
6528;BME280;64597;42.664;23.256;2023-07-29T10:23:09;94342.81;;;38.20;15.78
6528;BME280;64597;42.664;23.256;2023-07-29T10:25:38;94346.97;;;38.35;16.15
6528;BME280;64597;42.664;23.256;2023-07-29T10:28:08;94352.38;;;38.65;15.84
6528;BME280;64597;42.664;23.256;2023-07-29T10:30:37;94303.59;;;38.39;15.38
6528;BME280;64597;42.664;23.256;2023-07-29T10:33:04;94345.94;;;38.48;15.43
6528;BME280;64597;42.664;23.256;2023-07-29T10:35:35;94320.25;;;38.55;15.03
6528;BME280;64597;42.664;23.256;2023-07-29T10:38:02;94330.72;;;38.67;15.07
6528;BME280;64597;42.664;23.256;2023-07-29T10:40:43;94317.88;;;38.57;14.93
6528;BME280;64597;42.664;23.256;2023-07-29T10:43:11;94332.81;;;38.83;15.06
6528;BME280;64597;42.664;23.256;2023-07-29T10:45:37;94329.13;;;38.43;14.31
6528;BME280;64597;42.664;23.256;2023-07-29T10:50:34;94315.22;;;38.50;15.13
6528;BME280;64597;42.664;23.256;2023-07-29T10:52:59;94318.81;;;38.47;14.35
6528;BME280;64597;42.664;23.256;2023-07-29T10:58:05;94316.00;;;38.24;14.86
6528;BME280;64597;42.664;23.256;2023-07-29T11:00:31;94314.84;;;38.25;15.29
6528;BME280;64597;42.664;23.256;2023-07-29T11:03:05;94297.94;;;38.19;15.19
6528;BME280;64597;42.664;23.256;2023-07-29T11:08:30;94302.78;;;38.12;15.07
6528;BME280;64597;42.664;23.256;2023-07-29T11:11:06;94306.94;;;38.27;14.80
6528;BME280;64597;42.664;23.256;2023-07-29T11:13:34;94302.38;;;38.40;14.90
6528;BME280;64597;42.664;23.256;2023-07-29T11:16:00;94293.81;;;38.34;14.97
6528;BME280;64597;42.664;23.256;2023-07-29T11:18:29;94296.84;;;38.13;15.18
6528;BME280;64597;42.664;23.256;2023-07-29T11:20:56;94303.63;;;37.78;15.18
6528;BME280;64597;42.664;23.256;2023-07-29T11:23:28;94307.81;;;37.56;15.95
6528;BME280;64597;42.664;23.256;2023-07-29T11:25:54;94279.56;;;37.18;15.89
6528;BME280;64597;42.664;23.256;2023-07-29T11:28:20;94294.81;;;37.23;16.47
6528;BME280;64597;42.664;23.256;2023-07-29T11:30:47;94285.69;;;37.33;15.38
6528;BME280;64597;42.664;23.256;2023-07-29T11:33:12;94287.19;;;37.41;15.30
6528;BME280;64597;42.664;23.256;2023-07-29T11:35:39;94285.19;;;37.45;15.46
6528;BME280;64597;42.664;23.256;2023-07-29T11:38:04;94286.50;;;37.64;16.45
6528;BME280;64597;42.664;23.256;2023-07-29T11:40:30;94283.59;;;37.74;16.05
6528;BME280;64597;42.664;23.256;2023-07-29T11:42:55;94281.78;;;37.64;16.09
6528;BME280;64597;42.664;23.256;2023-07-29T11:45:22;94274.00;;;37.56;15.98
6528;BME280;64597;42.664;23.256;2023-07-29T11:47:48;94284.66;;;37.54;14.79
6528;BME280;64597;42.664;23.256;2023-07-29T11:50:14;94282.69;;;37.54;15.65
6528;BME280;64597;42.664;23.256;2023-07-29T11:52:42;94278.94;;;37.41;15.86
6528;BME280;64597;42.664;23.256;2023-07-29T11:55:08;94262.88;;;37.36;15.46
6528;BME280;64597;42.664;23.256;2023-07-29T11:57:36;94269.84;;;37.07;14.68
6528;BME280;64597;42.664;23.256;2023-07-29T12:00:04;94267.59;;;36.98;15.60
6528;BME280;64597;42.664;23.256;2023-07-29T12:02:32;94262.66;;;37.20;15.41
6528;BME280;64597;42.664;23.256;2023-07-29T12:04:58;94263.38;;;37.24;15.52
6528;BME280;64597;42.664;23.256;2023-07-29T12:07:24;94260.94;;;37.30;15.22
6528;BME280;64597;42.664;23.256;2023-07-29T12:09:50;94254.09;;;37.11;15.58
6528;BME280;64597;42.664;23.256;2023-07-29T12:12:17;94253.72;;;37.09;15.98
6528;BME280;64597;42.664;23.256;2023-07-29T12:14:44;94249.31;;;37.15;15.58
6528;BME280;64597;42.664;23.256;2023-07-29T12:17:10;94249.31;;;37.15;16.07
6528;BME280;64597;42.664;23.256;2023-07-29T12:19:37;94252.25;;;37.01;15.42
6528;BME280;64597;42.664;23.256;2023-07-29T12:22:04;94236.22;;;36.96;15.48
6528;BME280;64597;42.664;23.256;2023-07-29T12:24:31;94244.81;;;36.98;15.85
6528;BME280;64597;42.664;23.256;2023-07-29T12:26:57;94255.16;;;36.87;15.54
6528;BME280;64597;42.664;23.256;2023-07-29T12:29:23;94241.03;;;36.81;15.57
6528;BME280;64597;42.664;23.256;2023-07-29T12:31:56;94243.00;;;36.81;15.67
6528;BME280;64597;42.664;23.256;2023-07-29T12:34:25;94230.91;;;36.75;16.13
6528;BME280;64597;42.664;23.256;2023-07-29T12:36:51;94245.09;;;37.07;16.11
6528;BME280;64597;42.664;23.256;2023-07-29T12:39:19;94241.13;;;37.11;15.32
6528;BME280;64597;42.664;23.256;2023-07-29T12:41:45;94243.31;;;36.93;15.93
6528;BME280;64597;42.664;23.256;2023-07-29T12:44:11;94239.75;;;36.93;15.69
6528;BME280;64597;42.664;23.256;2023-07-29T12:46:36;94240.13;;;36.95;15.64
6528;BME280;64597;42.664;23.256;2023-07-29T12:49:02;94240.44;;;37.04;14.82
6528;BME280;64597;42.664;23.256;2023-07-29T12:51:27;94233.22;;;36.76;15.17
6528;BME280;64597;42.664;23.256;2023-07-29T12:53:56;94243.31;;;36.93;14.97
6528;BME280;64597;42.664;23.256;2023-07-29T12:56:21;94222.16;;;36.87;15.49
6528;BME280;64597;42.664;23.256;2023-07-29T12:58:47;94243.47;;;36.72;14.87
6528;BME280;64597;42.664;23.256;2023-07-29T13:01:12;94239.66;;;36.63;15.46
6528;BME280;64597;42.664;23.256;2023-07-29T13:03:44;94246.03;;;36.53;15.40
6528;BME280;64597;42.664;23.256;2023-07-29T13:06:09;94240.63;;;36.38;15.53
6528;BME280;64597;42.664;23.256;2023-07-29T13:08:35;94222.66;;;36.27;16.13